createdAt,value
2023-01-17T00:00:24.520Z,77.90
2023-01-17T00:01:24.478Z,88.00
2023-01-17T00:02:24.540Z,117.80
2023-01-17T00:03:24.454Z,121.90
2023-01-17T00:04:24.462Z,105.90
2023-01-17T00:05:24.437Z,105.00
2023-01-17T00:06:24.431Z,114.70
2023-01-17T00:07:24.414Z,109.80
2023-01-17T00:08:24.407Z,122.70
2023-01-17T00:09:24.408Z,116.70
2023-01-17T00:10:24.397Z,113.00
2023-01-17T00:11:24.374Z,105.90
2023-01-17T00:12:24.372Z,91.00
2023-01-17T00:13:24.353Z,86.50
2023-01-17T00:14:24.367Z,68.70
2023-01-17T00:15:24.345Z,44.10
2023-01-17T00:16:24.329Z,56.80
2023-01-17T00:17:24.327Z,68.20
2023-01-17T00:18:24.302Z,64.60
2023-01-17T00:19:24.388Z,68.10
2023-01-17T00:20:24.287Z,74.90
2023-01-17T00:21:24.277Z,77.40
2023-01-17T00:22:24.265Z,69.00
2023-01-17T00:23:24.259Z,72.40
2023-01-17T00:24:24.257Z,56.60
2023-01-17T00:25:24.241Z,74.70
2023-01-17T00:26:24.224Z,72.20
2023-01-17T00:27:24.224Z,93.10
2023-01-17T00:28:24.213Z,45.70
2023-01-17T00:29:24.215Z,53.90
2023-01-17T00:30:24.193Z,56.80
2023-01-17T00:31:24.220Z,68.70
2023-01-17T00:32:24.169Z,60.20
2023-01-17T00:33:24.161Z,76.30
2023-01-17T00:34:24.157Z,53.50
2023-01-17T00:35:24.143Z,61.10
2023-01-17T00:36:24.127Z,53.60
2023-01-17T00:37:24.121Z,56.00
2023-01-17T00:38:24.103Z,70.50
2023-01-17T00:39:24.120Z,72.70
2023-01-17T00:40:24.100Z,67.80
2023-01-17T00:41:24.083Z,69.40
2023-01-17T00:42:24.075Z,72.80
2023-01-17T00:43:24.066Z,78.90
2023-01-17T00:44:24.059Z,77.20
2023-01-17T00:45:24.045Z,67.40
2023-01-17T00:46:24.050Z,57.80
2023-01-17T00:47:24.027Z,60.60
2023-01-17T00:48:24.006Z,65.50
2023-01-17T00:49:24.133Z,62.60
2023-01-17T00:50:23.988Z,50.90
2023-01-17T00:51:23.990Z,57.20
2023-01-17T00:52:23.972Z,66.10
2023-01-17T00:53:23.966Z,57.00
2023-01-17T00:54:23.976Z,53.70
2023-01-17T00:55:23.962Z,53.10
2023-01-17T00:56:23.928Z,59.10
2023-01-17T00:57:23.926Z,42.10
2023-01-17T00:58:23.921Z,53.30
2023-01-17T00:59:23.916Z,52.90
2023-01-17T01:00:23.903Z,46.60
2023-01-17T01:01:24.092Z,60.80
2023-01-17T01:02:23.961Z,58.70
2023-01-17T01:03:23.864Z,49.00
2023-01-17T01:04:23.865Z,58.70
2023-01-17T01:05:23.851Z,51.30
2023-01-17T01:06:23.834Z,53.20
2023-01-17T01:07:23.827Z,52.60
2023-01-17T01:08:23.809Z,67.40
2023-01-17T01:09:23.821Z,76.30
2023-01-17T01:10:23.791Z,65.70
2023-01-17T01:11:23.791Z,56.60
2023-01-17T01:12:23.781Z,67.70
2023-01-17T01:13:23.768Z,75.40
2023-01-17T01:14:23.777Z,63.70
2023-01-17T01:15:23.748Z,60.10
2023-01-17T01:16:23.772Z,54.20
2023-01-17T01:17:23.736Z,56.30
2023-01-17T01:18:23.719Z,73.80
2023-01-17T01:19:23.722Z,57.30
2023-01-17T01:20:23.695Z,62.00
2023-01-17T01:21:23.693Z,69.20
2023-01-17T01:22:23.672Z,55.50
2023-01-17T01:23:23.666Z,45.40
2023-01-17T01:24:23.669Z,50.60
2023-01-17T01:25:23.660Z,65.90
2023-01-17T01:26:23.637Z,67.40
2023-01-17T01:27:23.629Z,55.00
2023-01-17T01:28:23.627Z,73.00
2023-01-17T01:29:23.629Z,68.00
2023-01-17T01:30:23.597Z,47.60
2023-01-17T01:31:23.613Z,45.30
2023-01-17T01:32:23.574Z,70.80
2023-01-17T01:33:23.572Z,72.90
2023-01-17T01:34:23.573Z,66.20
2023-01-17T01:35:23.552Z,66.40
2023-01-17T01:36:23.540Z,71.00
2023-01-17T01:37:23.529Z,75.00
2023-01-17T01:38:23.538Z,65.10
2023-01-17T01:39:23.527Z,89.80
2023-01-17T01:40:23.497Z,88.80
2023-01-17T01:41:23.500Z,67.20
2023-01-17T01:42:23.477Z,83.10
2023-01-17T01:43:23.474Z,80.50
2023-01-17T01:44:23.474Z,70.40
2023-01-17T01:45:23.486Z,71.60
2023-01-17T01:46:23.441Z,75.10
2023-01-17T01:47:23.434Z,69.20
2023-01-17T01:48:23.416Z,65.90
2023-01-17T01:49:23.426Z,69.10
2023-01-17T01:50:23.400Z,58.60
2023-01-17T01:51:23.394Z,78.00
2023-01-17T01:52:23.376Z,77.20
2023-01-17T01:53:23.374Z,55.40
2023-01-17T01:54:23.377Z,76.40
2023-01-17T01:55:23.354Z,63.70
2023-01-17T01:56:23.336Z,55.30
2023-01-17T01:57:23.334Z,77.60
2023-01-17T01:58:23.330Z,67.50
2023-01-17T01:59:23.339Z,54.90
2023-01-17T02:00:23.304Z,72.20
2023-01-17T02:01:23.391Z,54.80
2023-01-17T02:02:23.281Z,47.00
2023-01-17T02:03:23.292Z,64.20
2023-01-17T02:04:23.277Z,76.70
2023-01-17T02:05:23.258Z,59.80
2023-01-17T02:06:23.240Z,77.30
2023-01-17T02:07:23.254Z,67.90
2023-01-17T02:08:23.230Z,68.40
2023-01-17T02:09:23.236Z,90.30
2023-01-17T02:10:23.202Z,69.30
2023-01-17T02:11:23.210Z,87.90
2023-01-17T02:12:23.183Z,82.10
2023-01-17T02:13:23.179Z,80.10
2023-01-17T02:14:23.184Z,85.30
2023-01-17T02:15:23.156Z,77.10
2023-01-17T02:16:23.192Z,86.30
2023-01-17T02:17:23.142Z,91.50
2023-01-17T02:18:23.138Z,100.30
2023-01-17T02:19:23.129Z,83.70
2023-01-17T02:20:23.103Z,92.60
2023-01-17T02:21:23.098Z,92.40
2023-01-17T02:22:23.081Z,89.70
2023-01-17T02:23:23.081Z,86.90
2023-01-17T02:24:23.101Z,77.90
2023-01-17T02:25:23.058Z,64.90
2023-01-17T02:26:23.046Z,99.80
2023-01-17T02:27:23.040Z,89.10
2023-01-17T02:28:23.028Z,109.70
2023-01-17T02:29:23.026Z,98.30
2023-01-17T02:30:23.020Z,80.70
2023-01-17T02:31:23.072Z,86.30
2023-01-17T02:32:22.986Z,50.40
2023-01-17T02:33:22.980Z,86.40
2023-01-17T02:34:22.971Z,63.30
2023-01-17T02:35:22.976Z,99.00
2023-01-17T02:36:22.947Z,118.60
2023-01-17T02:37:22.948Z,102.00
2023-01-17T02:38:22.930Z,129.10
2023-01-17T02:39:22.919Z,128.90
2023-01-17T02:40:22.925Z,101.90
2023-01-17T02:41:22.930Z,75.90
2023-01-17T02:42:22.917Z,116.10
2023-01-17T02:43:22.880Z,116.10
2023-01-17T02:44:22.883Z,122.20
2023-01-17T02:45:22.894Z,119.10
2023-01-17T02:46:22.844Z,118.40
2023-01-17T02:47:22.841Z,125.80
2023-01-17T02:48:22.831Z,128.70
2023-01-17T02:49:22.822Z,77.50
2023-01-17T02:50:22.823Z,105.60
2023-01-17T02:51:22.801Z,93.30
2023-01-17T02:52:22.790Z,109.50
2023-01-17T02:53:22.780Z,108.30
2023-01-17T02:54:22.766Z,110.80
2023-01-17T02:55:22.788Z,93.30
2023-01-17T02:56:22.752Z,107.70
2023-01-17T02:57:22.743Z,109.10
2023-01-17T02:58:22.730Z,101.90
2023-01-17T02:59:22.724Z,105.90
2023-01-17T03:00:22.725Z,92.70
2023-01-17T03:01:22.810Z,84.50
2023-01-17T03:02:22.728Z,91.90
2023-01-17T03:03:22.690Z,96.80
2023-01-17T03:04:22.698Z,100.10
2023-01-17T03:05:22.677Z,83.50
2023-01-17T03:06:22.650Z,84.80
2023-01-17T03:07:22.664Z,94.90
2023-01-17T03:08:22.628Z,101.20
2023-01-17T03:09:22.628Z,82.70
2023-01-17T03:10:22.631Z,106.30
2023-01-17T03:11:22.611Z,85.50
2023-01-17T03:12:22.606Z,70.90
2023-01-17T03:13:22.587Z,40.70
2023-01-17T03:14:22.575Z,60.90
2023-01-17T03:15:22.578Z,53.90
2023-01-17T03:16:22.581Z,69.00
2023-01-17T03:17:22.556Z,49.20
2023-01-17T03:18:22.540Z,40.90
2023-01-17T03:19:22.531Z,56.60
2023-01-17T03:20:22.812Z,47.20
2023-01-17T03:21:22.521Z,61.50
2023-01-17T03:22:22.490Z,48.50
2023-01-17T03:23:22.488Z,58.50
2023-01-17T03:24:22.471Z,51.90
2023-01-17T03:25:22.485Z,52.20
2023-01-17T03:26:22.451Z,46.60
2023-01-17T03:27:22.451Z,42.50
2023-01-17T03:28:22.434Z,45.00
2023-01-17T03:29:22.432Z,44.50
2023-01-17T03:30:22.455Z,50.30
2023-01-17T03:31:22.407Z,43.60
2023-01-17T03:32:22.391Z,59.90
2023-01-17T03:33:22.388Z,43.70
2023-01-17T03:34:22.373Z,55.60
2023-01-17T03:35:22.387Z,52.10
2023-01-17T03:36:22.351Z,60.80
2023-01-17T03:37:22.360Z,57.10
2023-01-17T03:38:22.347Z,50.90
2023-01-17T03:39:22.329Z,60.10
2023-01-17T03:40:22.335Z,51.00
2023-01-17T03:41:22.306Z,50.60
2023-01-17T03:42:22.300Z,45.50
2023-01-17T03:43:22.294Z,55.90
2023-01-17T03:44:22.289Z,60.30
2023-01-17T03:45:22.296Z,57.40
2023-01-17T03:46:22.261Z,55.20
2023-01-17T03:47:22.259Z,58.90
2023-01-17T03:48:22.234Z,50.30
2023-01-17T03:49:22.230Z,55.00
2023-01-17T03:50:22.229Z,50.20
2023-01-17T03:51:22.248Z,45.10
2023-01-17T03:52:22.204Z,45.40
2023-01-17T03:53:22.190Z,34.70
2023-01-17T03:54:22.183Z,44.60
2023-01-17T03:55:22.182Z,34.10
2023-01-17T03:56:22.158Z,39.60
2023-01-17T03:57:22.157Z,41.80
2023-01-17T03:58:22.137Z,43.60
2023-01-17T03:59:22.131Z,36.10
2023-01-17T04:00:22.129Z,28.40
2023-01-17T04:01:22.194Z,34.50
2023-01-17T04:02:22.126Z,21.70
2023-01-17T04:03:22.099Z,27.40
2023-01-17T04:04:22.080Z,23.70
2023-01-17T04:05:22.103Z,24.70
2023-01-17T04:06:22.061Z,21.30
2023-01-17T04:07:22.058Z,20.60
2023-01-17T04:08:22.041Z,21.20
2023-01-17T04:09:22.033Z,16.10
2023-01-17T04:10:22.037Z,20.80
2023-01-17T04:11:22.013Z,20.30
2023-01-17T04:12:22.000Z,15.60
2023-01-17T04:13:21.993Z,14.30
2023-01-17T04:14:21.986Z,17.60
2023-01-17T04:15:21.985Z,14.20
2023-01-17T04:16:28.061Z,18.40
2023-01-17T04:17:21.956Z,17.50
2023-01-17T04:18:24.573Z,14.20
2023-01-17T04:19:21.936Z,13.50
2023-01-17T04:20:21.936Z,16.90
2023-01-17T04:21:21.921Z,19.20
2023-01-17T04:22:21.902Z,17.80
2023-01-17T04:23:21.895Z,16.10
2023-01-17T04:24:21.889Z,16.90
2023-01-17T04:25:21.893Z,14.80
2023-01-17T04:26:21.860Z,13.10
2023-01-17T04:27:21.894Z,13.70
2023-01-17T04:28:21.855Z,13.50
2023-01-17T04:29:21.841Z,13.20
2023-01-17T04:30:21.840Z,12.90
2023-01-17T04:31:21.878Z,10.70
2023-01-17T04:32:21.803Z,12.40
2023-01-17T04:33:21.797Z,12.00
2023-01-17T04:34:21.784Z,14.20
2023-01-17T04:35:21.789Z,12.00
2023-01-17T04:36:21.779Z,11.80
2023-01-17T04:37:21.753Z,9.80
2023-01-17T04:38:21.757Z,12.30
2023-01-17T04:39:21.731Z,10.30
2023-01-17T04:40:21.749Z,13.00
2023-01-17T04:41:21.715Z,13.60
2023-01-17T04:42:21.709Z,12.30
2023-01-17T04:43:21.698Z,12.20
2023-01-17T04:44:21.688Z,13.70
2023-01-17T04:45:21.694Z,11.90
2023-01-17T04:46:21.747Z,12.70
2023-01-17T04:47:21.658Z,13.50
2023-01-17T04:48:21.648Z,14.30
2023-01-17T04:49:21.635Z,11.80
2023-01-17T04:50:21.645Z,13.50
2023-01-17T04:51:21.641Z,14.50
2023-01-17T04:52:21.617Z,15.70
2023-01-17T04:53:21.595Z,14.70
2023-01-17T04:54:21.593Z,15.20
2023-01-17T04:55:21.592Z,12.90
2023-01-17T04:56:21.576Z,13.10
2023-01-17T04:57:21.554Z,11.90
2023-01-17T04:58:21.555Z,15.30
2023-01-17T04:59:21.538Z,11.40
2023-01-17T05:00:23.989Z,11.90
2023-01-17T05:01:21.659Z,11.80
2023-01-17T05:02:21.551Z,13.40
2023-01-17T05:03:21.499Z,12.80
2023-01-17T05:04:21.494Z,12.40
2023-01-17T05:05:21.498Z,13.20
2023-01-17T05:06:21.477Z,14.00
2023-01-17T05:07:21.461Z,14.60
2023-01-17T05:08:21.451Z,14.50
2023-01-17T05:09:21.440Z,13.30
2023-01-17T05:10:21.445Z,17.00
2023-01-17T05:11:21.432Z,13.10
2023-01-17T05:12:21.512Z,13.40
2023-01-17T05:13:21.399Z,13.70
2023-01-17T05:14:21.393Z,12.70
2023-01-17T05:15:21.400Z,11.70
2023-01-17T05:16:21.377Z,11.50
2023-01-17T05:17:21.364Z,11.30
2023-01-17T05:18:21.373Z,12.90
2023-01-17T05:19:21.355Z,14.00
2023-01-17T05:20:21.353Z,14.00
2023-01-17T05:21:21.327Z,13.10
2023-01-17T05:22:21.316Z,11.00
2023-01-17T05:23:21.305Z,12.80
2023-01-17T05:24:21.296Z,15.30
2023-01-17T05:25:21.292Z,13.30
2023-01-17T05:26:21.345Z,14.50
2023-01-17T05:27:21.256Z,14.30
2023-01-17T05:28:21.251Z,13.00
2023-01-17T05:29:21.239Z,13.00
2023-01-17T05:30:21.251Z,15.10
2023-01-17T05:31:21.399Z,12.90
2023-01-17T05:32:21.214Z,13.70
2023-01-17T05:33:21.205Z,15.40
2023-01-17T05:34:21.205Z,14.90
2023-01-17T05:35:21.196Z,14.40
2023-01-17T05:36:21.317Z,14.80
2023-01-17T05:37:21.170Z,14.30
2023-01-17T05:38:21.153Z,17.20
2023-01-17T05:39:21.166Z,12.50
2023-01-17T05:40:21.154Z,16.20
2023-01-17T05:41:21.120Z,14.50
2023-01-17T05:42:21.120Z,14.10
2023-01-17T05:43:22.248Z,14.40
2023-01-17T05:44:21.100Z,15.80
2023-01-17T05:45:21.096Z,14.70
2023-01-17T05:46:21.125Z,16.30
2023-01-17T05:47:21.071Z,15.80
2023-01-17T05:48:21.075Z,13.50
2023-01-17T05:49:21.053Z,14.20
2023-01-17T05:50:21.061Z,15.20
2023-01-17T05:51:21.018Z,17.10
2023-01-17T05:52:21.011Z,13.80
2023-01-17T05:53:21.034Z,15.10
2023-01-17T05:54:20.997Z,14.10
2023-01-17T05:55:20.986Z,14.10
2023-01-17T05:56:21.007Z,11.90
2023-01-17T05:57:20.995Z,15.80
2023-01-17T05:58:20.975Z,14.30
2023-01-17T05:59:35.973Z,13.90
2023-01-17T06:00:20.948Z,12.80
2023-01-17T06:01:20.971Z,14.90
2023-01-17T06:02:20.936Z,12.00
2023-01-17T06:03:20.920Z,12.70
2023-01-17T06:04:20.931Z,11.80
2023-01-17T06:05:20.888Z,13.10
2023-01-17T06:06:20.888Z,13.50
2023-01-17T06:07:20.859Z,15.60
2023-01-17T06:08:20.853Z,11.40
2023-01-17T06:09:20.846Z,12.30
2023-01-17T06:10:20.843Z,15.70
2023-01-17T06:11:20.840Z,13.50
2023-01-17T06:12:22.101Z,16.50
2023-01-17T06:13:20.802Z,14.80
2023-01-17T06:14:20.796Z,14.00
2023-01-17T06:15:20.784Z,13.90
2023-01-17T06:16:20.848Z,14.50
2023-01-17T06:17:20.760Z,17.70
2023-01-17T06:18:20.756Z,14.90
2023-01-17T06:19:20.742Z,15.50
2023-01-17T06:20:20.744Z,15.70
2023-01-17T06:21:20.737Z,15.40
2023-01-17T06:22:20.721Z,15.60
2023-01-17T06:23:20.704Z,16.60
2023-01-17T06:24:20.700Z,17.60
2023-01-17T06:25:20.693Z,17.10
2023-01-17T06:26:20.692Z,18.60
2023-01-17T06:27:20.667Z,19.90
2023-01-17T06:28:20.658Z,17.10
2023-01-17T06:29:20.645Z,17.70
2023-01-17T06:30:20.640Z,18.40
2023-01-17T06:31:20.673Z,15.00
2023-01-17T06:32:20.621Z,18.40
2023-01-17T06:33:20.616Z,12.00
2023-01-17T06:34:20.602Z,13.80
2023-01-17T06:35:20.586Z,15.40
2023-01-17T06:36:20.609Z,13.50
2023-01-17T06:37:20.572Z,11.90
2023-01-17T06:38:20.574Z,13.10
2023-01-17T06:39:20.547Z,14.20
2023-01-17T06:40:20.544Z,15.20
2023-01-17T06:41:20.487Z,15.00
2023-01-17T06:42:20.520Z,14.30
2023-01-17T06:43:20.508Z,15.50
2023-01-17T06:44:20.458Z,17.00
2023-01-17T06:45:20.436Z,18.10
2023-01-17T06:46:20.474Z,14.60
2023-01-17T06:47:20.470Z,22.80
2023-01-17T06:48:20.424Z,16.70
2023-01-17T06:49:20.395Z,21.90
2023-01-17T06:50:20.386Z,22.40
2023-01-17T06:51:20.392Z,27.60
2023-01-17T06:52:20.369Z,25.00
2023-01-17T06:53:20.354Z,25.90
2023-01-17T06:54:20.355Z,27.20
2023-01-17T06:55:20.335Z,32.30
2023-01-17T06:56:20.343Z,40.00
2023-01-17T06:57:20.321Z,42.00
2023-01-17T06:58:20.305Z,31.70
2023-01-17T06:59:20.294Z,33.90
2023-01-17T07:00:20.299Z,42.20
2023-01-17T07:01:20.421Z,46.70
2023-01-17T07:02:20.267Z,41.90
2023-01-17T07:03:20.254Z,39.60
2023-01-17T07:04:20.253Z,46.20
2023-01-17T07:05:20.235Z,44.90
2023-01-17T07:06:20.269Z,41.10
2023-01-17T07:07:20.216Z,42.30
2023-01-17T07:08:20.214Z,45.50
2023-01-17T07:09:20.214Z,48.30
2023-01-17T07:10:20.187Z,48.10
2023-01-17T07:11:20.189Z,40.00
2023-01-17T07:12:20.173Z,46.20
2023-01-17T07:13:20.164Z,44.00
2023-01-17T07:14:20.152Z,48.10
2023-01-17T07:15:20.140Z,50.30
2023-01-17T07:16:20.195Z,43.80
2023-01-17T07:17:20.116Z,44.70
2023-01-17T07:18:20.113Z,42.90
2023-01-17T07:19:20.102Z,43.80
2023-01-17T07:20:20.109Z,44.40
2023-01-17T07:21:20.095Z,45.70
2023-01-17T07:22:20.074Z,42.90
2023-01-17T07:23:20.059Z,37.10
2023-01-17T07:24:20.052Z,51.40
2023-01-17T07:25:20.056Z,46.00
2023-01-17T07:26:20.048Z,53.50
2023-01-17T07:27:20.032Z,54.30
2023-01-17T07:28:20.015Z,49.90
2023-01-17T07:29:19.999Z,56.30
2023-01-17T07:30:20.001Z,49.90
2023-01-17T07:31:20.033Z,54.10
2023-01-17T07:32:19.977Z,56.50
2023-01-17T07:33:19.959Z,54.70
2023-01-17T07:34:19.951Z,56.60
2023-01-17T07:35:19.949Z,51.00
2023-01-17T07:36:19.952Z,54.20
2023-01-17T07:37:19.975Z,60.20
2023-01-17T07:38:19.920Z,61.30
2023-01-17T07:39:19.905Z,43.90
2023-01-17T07:40:19.928Z,56.50
2023-01-17T07:41:19.911Z,39.90
2023-01-17T07:42:19.897Z,45.90
2023-01-17T07:43:19.861Z,49.80
2023-01-17T07:44:19.853Z,51.90
2023-01-17T07:45:19.849Z,45.10
2023-01-17T07:46:19.895Z,49.80
2023-01-17T07:47:19.821Z,47.40
2023-01-17T07:48:19.825Z,52.00
2023-01-17T07:49:19.811Z,54.60
2023-01-17T07:50:19.796Z,55.50
2023-01-17T07:51:19.791Z,58.90
2023-01-17T07:52:19.778Z,40.20
2023-01-17T07:53:19.763Z,68.10
2023-01-17T07:54:19.754Z,69.10
2023-01-17T07:55:19.741Z,40.90
2023-01-17T07:56:19.756Z,61.50
2023-01-17T07:57:19.736Z,68.30
2023-01-17T07:58:19.720Z,61.00
2023-01-17T07:59:19.721Z,64.30
2023-01-17T08:00:19.708Z,57.30
2023-01-17T08:01:19.817Z,55.30
2023-01-17T08:02:19.691Z,75.20
2023-01-17T08:03:19.703Z,81.10
2023-01-17T08:04:19.682Z,80.40
2023-01-17T08:05:19.673Z,70.50
2023-01-17T08:06:19.677Z,75.40
2023-01-17T08:07:19.630Z,66.00
2023-01-17T08:08:19.641Z,77.80
2023-01-17T08:09:19.612Z,68.00
2023-01-17T08:10:19.621Z,83.70
2023-01-17T08:11:19.616Z,81.40
2023-01-17T08:12:19.591Z,65.70
2023-01-17T08:13:19.573Z,81.00
2023-01-17T08:14:19.565Z,82.30
2023-01-17T08:15:19.552Z,90.90
2023-01-17T08:16:19.596Z,88.30
2023-01-17T08:17:19.535Z,81.20
2023-01-17T08:18:19.527Z,100.80
2023-01-17T08:19:19.509Z,92.90
2023-01-17T08:20:19.505Z,95.10
2023-01-17T08:21:19.518Z,90.60
2023-01-17T08:22:19.487Z,96.40
2023-01-17T08:23:19.472Z,96.30
2023-01-17T08:24:19.477Z,87.90
2023-01-17T08:25:19.456Z,96.40
2023-01-17T08:26:19.489Z,112.50
2023-01-17T08:27:19.454Z,110.60
2023-01-17T08:28:19.426Z,89.10
2023-01-17T08:29:19.403Z,107.00
2023-01-17T08:30:19.403Z,116.50
2023-01-17T08:31:19.402Z,89.50
2023-01-17T08:32:19.404Z,108.10
2023-01-17T08:33:19.362Z,94.10
2023-01-17T08:34:19.356Z,125.10
2023-01-17T08:35:19.341Z,97.30
2023-01-17T08:36:19.344Z,84.20
2023-01-17T08:37:19.337Z,104.20
2023-01-17T08:38:19.316Z,108.90
2023-01-17T08:39:19.306Z,106.20
2023-01-17T08:40:19.300Z,90.10
2023-01-17T08:41:19.281Z,94.80
2023-01-17T08:42:19.293Z,96.00
2023-01-17T08:43:19.262Z,88.10
2023-01-17T08:44:19.261Z,93.70
2023-01-17T08:45:19.243Z,106.80
2023-01-17T08:46:19.264Z,98.70
2023-01-17T08:47:19.258Z,85.60
2023-01-17T08:48:19.236Z,76.00
2023-01-17T08:49:19.222Z,81.60
2023-01-17T08:50:19.200Z,81.30
2023-01-17T08:51:19.196Z,74.70
2023-01-17T08:52:19.196Z,64.50
2023-01-17T08:53:19.183Z,53.20
2023-01-17T08:54:19.169Z,55.10
2023-01-17T08:55:19.167Z,58.80
2023-01-17T08:56:19.149Z,57.60
2023-01-17T08:57:19.150Z,46.70
2023-01-17T08:58:19.118Z,56.00
2023-01-17T08:59:19.129Z,46.70
2023-01-17T09:00:19.113Z,59.00
2023-01-17T09:01:19.193Z,59.60
2023-01-17T09:02:19.123Z,49.90
2023-01-17T09:03:19.871Z,63.30
2023-01-17T09:04:19.115Z,72.30
2023-01-17T09:05:19.066Z,69.80
2023-01-17T09:06:19.051Z,73.60
2023-01-17T09:07:19.057Z,69.60
2023-01-17T09:08:19.025Z,62.50
2023-01-17T09:09:19.035Z,54.90
2023-01-17T09:10:19.054Z,58.80
2023-01-17T09:11:19.010Z,50.30
2023-01-17T09:12:19.020Z,51.20
2023-01-17T09:13:18.987Z,55.20
2023-01-17T09:14:18.978Z,53.40
2023-01-17T09:15:18.957Z,54.10
2023-01-17T09:16:19.002Z,50.60
2023-01-17T09:17:18.968Z,48.20
2023-01-17T09:18:18.933Z,48.70
2023-01-17T09:19:18.936Z,54.00
2023-01-17T09:20:18.905Z,50.80
2023-01-17T09:21:18.898Z,58.60
2023-01-17T09:22:18.906Z,46.90
2023-01-17T09:23:18.873Z,56.80
2023-01-17T09:24:18.866Z,62.40
2023-01-17T09:25:18.886Z,65.80
2023-01-17T09:26:18.845Z,64.20
2023-01-17T09:27:18.862Z,44.70
2023-01-17T09:28:18.828Z,55.70
2023-01-17T09:29:18.836Z,54.10
2023-01-17T09:30:18.813Z,50.60
2023-01-17T09:31:18.817Z,53.60
2023-01-17T09:32:18.806Z,40.40
2023-01-17T09:33:18.789Z,53.80
2023-01-17T09:34:18.777Z,58.60
2023-01-17T09:35:18.771Z,53.70
2023-01-17T09:36:18.758Z,59.70
2023-01-17T09:37:18.774Z,61.00
2023-01-17T09:38:18.733Z,53.10
2023-01-17T09:39:18.717Z,58.60
2023-01-17T09:40:18.703Z,62.40
2023-01-17T09:41:18.690Z,59.90
2023-01-17T09:42:18.695Z,48.90
2023-01-17T09:43:18.673Z,53.10
2023-01-17T09:44:18.662Z,46.20
2023-01-17T09:45:19.450Z,55.60
2023-01-17T09:46:18.651Z,51.80
2023-01-17T09:47:18.746Z,54.50
2023-01-17T09:48:18.629Z,53.10
2023-01-17T09:49:18.624Z,46.20
2023-01-17T09:50:18.613Z,33.30
2023-01-17T09:51:18.600Z,45.10
2023-01-17T09:52:18.608Z,34.20
2023-01-17T09:53:18.571Z,36.30
2023-01-17T09:54:18.574Z,40.50
2023-01-17T09:55:18.567Z,41.50
2023-01-17T09:56:18.551Z,35.40
2023-01-17T09:57:18.574Z,33.00
2023-01-17T09:58:18.534Z,30.30
2023-01-17T09:59:19.085Z,32.20
2023-01-17T10:00:18.508Z,36.50
2023-01-17T10:01:18.766Z,33.30
2023-01-17T10:02:18.825Z,34.90
2023-01-17T10:03:18.678Z,34.60
2023-01-17T10:04:18.615Z,32.80
2023-01-17T10:05:18.456Z,33.20
2023-01-17T10:06:18.453Z,36.40
2023-01-17T10:07:18.477Z,32.80
2023-01-17T10:08:18.425Z,36.50
2023-01-17T10:09:18.436Z,37.90
2023-01-17T10:10:18.408Z,32.90
2023-01-17T10:11:18.404Z,34.40
2023-01-17T10:12:18.404Z,30.00
2023-01-17T10:13:18.378Z,29.60
2023-01-17T10:14:18.367Z,28.80
2023-01-17T10:15:18.359Z,27.60
2023-01-17T10:16:18.418Z,32.10
2023-01-17T10:17:18.355Z,26.50
2023-01-17T10:18:29.182Z,35.30
2023-01-17T10:19:18.334Z,30.70
2023-01-17T10:20:18.291Z,32.40
2023-01-17T10:21:18.284Z,34.40
2023-01-17T10:22:18.290Z,37.70
2023-01-17T10:23:18.274Z,33.60
2023-01-17T10:24:24.268Z,32.70
2023-01-17T10:25:18.248Z,34.80
2023-01-17T10:26:18.232Z,32.60
2023-01-17T10:27:18.241Z,31.30
2023-01-17T10:28:18.222Z,38.60
2023-01-17T10:29:20.166Z,42.50
2023-01-17T10:30:18.197Z,41.30
2023-01-17T10:31:18.191Z,43.40
2023-01-17T10:32:18.184Z,38.70
2023-01-17T10:33:18.184Z,47.40
2023-01-17T10:34:18.154Z,47.10
2023-01-17T10:35:18.150Z,44.70
2023-01-17T10:36:18.144Z,60.30
2023-01-17T10:37:18.134Z,44.90
2023-01-17T10:38:18.113Z,51.60
2023-01-17T10:39:18.106Z,50.00
2023-01-17T10:40:18.091Z,55.20
2023-01-17T10:41:18.088Z,46.70
2023-01-17T10:42:18.087Z,55.30
2023-01-17T10:43:18.070Z,64.20
2023-01-17T10:44:18.052Z,44.70
2023-01-17T10:45:18.071Z,48.80
2023-01-17T10:46:18.205Z,52.90
2023-01-17T10:47:18.060Z,46.70
2023-01-17T10:48:18.012Z,49.60
2023-01-17T10:49:18.026Z,35.30
2023-01-17T10:50:17.993Z,28.90
2023-01-17T10:51:18.007Z,30.20
2023-01-17T10:52:17.983Z,25.40
2023-01-17T10:53:17.966Z,23.70
2023-01-17T10:54:17.956Z,24.30
2023-01-17T10:55:17.945Z,27.20
2023-01-17T10:56:17.930Z,23.70
2023-01-17T10:57:17.945Z,23.70
2023-01-17T10:58:17.915Z,24.60
2023-01-17T10:59:17.920Z,23.90
2023-01-17T11:00:17.983Z,24.00
2023-01-17T11:01:18.008Z,26.10
2023-01-17T11:02:17.976Z,27.10
2023-01-17T11:03:17.877Z,26.80
2023-01-17T11:04:17.872Z,31.20
2023-01-17T11:05:17.853Z,31.80
2023-01-17T11:06:17.830Z,34.00
2023-01-17T11:07:17.855Z,34.80
2023-01-17T11:08:17.806Z,37.70
2023-01-17T11:09:17.814Z,32.40
2023-01-17T11:10:17.846Z,32.90
2023-01-17T11:11:17.782Z,33.20
2023-01-17T11:12:17.786Z,35.70
2023-01-17T11:13:17.763Z,34.60
2023-01-17T11:14:17.756Z,36.80
2023-01-17T11:15:17.794Z,35.10
2023-01-17T11:16:17.724Z,34.60
2023-01-17T11:17:17.736Z,37.70
2023-01-17T11:18:17.717Z,38.40
2023-01-17T11:19:17.715Z,36.40
2023-01-17T11:20:17.743Z,39.30
2023-01-17T11:21:17.690Z,38.90
2023-01-17T11:22:17.684Z,37.00
2023-01-17T11:23:17.664Z,36.80
2023-01-17T11:24:17.669Z,39.90
2023-01-17T11:25:17.641Z,43.40
2023-01-17T11:26:17.630Z,39.40
2023-01-17T11:27:17.635Z,40.00
2023-01-17T11:28:17.610Z,42.00
2023-01-17T11:29:17.619Z,41.50
2023-01-17T11:30:17.685Z,44.00
2023-01-17T11:31:17.629Z,45.30
2023-01-17T11:32:17.579Z,43.80
2023-01-17T11:33:17.578Z,39.30
2023-01-17T11:34:17.552Z,46.80
2023-01-17T11:35:17.560Z,44.80
2023-01-17T11:36:17.532Z,39.20
2023-01-17T11:37:17.525Z,42.10
2023-01-17T11:38:17.523Z,35.60
2023-01-17T11:39:17.505Z,42.80
2023-01-17T11:40:17.490Z,31.30
2023-01-17T11:41:17.483Z,30.60
2023-01-17T11:42:17.471Z,26.90
2023-01-17T11:43:17.491Z,26.10
2023-01-17T11:44:17.451Z,28.70
2023-01-17T11:45:17.454Z,27.60
2023-01-17T11:46:17.455Z,24.10
2023-01-17T11:47:17.433Z,33.00
2023-01-17T11:48:17.430Z,26.20
2023-01-17T11:49:17.402Z,23.60
2023-01-17T11:50:17.452Z,23.00
2023-01-17T11:51:17.387Z,22.40
2023-01-17T11:52:17.368Z,19.80
2023-01-17T11:53:17.380Z,20.40
2023-01-17T11:54:17.355Z,20.30
2023-01-17T11:55:17.344Z,19.70
2023-01-17T11:56:17.330Z,22.30
2023-01-17T11:57:17.337Z,20.80
2023-01-17T11:58:17.320Z,21.90
2023-01-17T11:59:17.300Z,20.40
2023-01-17T12:00:17.289Z,19.70
2023-01-17T12:01:17.331Z,19.90
2023-01-17T12:02:17.281Z,18.20
2023-01-17T12:03:17.282Z,20.10
2023-01-17T12:04:17.246Z,17.50
2023-01-17T12:05:17.303Z,18.60
2023-01-17T12:06:17.230Z,19.90
2023-01-17T12:07:17.220Z,19.70
2023-01-17T12:08:17.230Z,18.20
2023-01-17T12:09:17.199Z,19.00
2023-01-17T12:10:17.185Z,18.20
2023-01-17T12:11:17.188Z,17.90
2023-01-17T12:12:17.163Z,18.80
2023-01-17T12:13:17.173Z,18.40
2023-01-17T12:14:17.174Z,19.60
2023-01-17T12:15:17.159Z,19.10
2023-01-17T12:16:17.181Z,18.50
2023-01-17T12:17:17.116Z,17.40
2023-01-17T12:18:17.125Z,17.80
2023-01-17T12:19:17.099Z,18.70
2023-01-17T12:20:17.084Z,17.40
2023-01-17T12:21:17.083Z,18.50
2023-01-17T12:22:17.072Z,17.70
2023-01-17T12:23:17.069Z,16.50
2023-01-17T12:24:17.051Z,17.20
2023-01-17T12:25:17.039Z,18.00
2023-01-17T12:26:17.054Z,18.80
2023-01-17T12:27:17.019Z,20.20
2023-01-17T12:28:17.019Z,19.10
2023-01-17T12:29:16.996Z,21.70
2023-01-17T12:30:16.980Z,19.10
2023-01-17T12:31:17.006Z,21.60
2023-01-17T12:32:16.974Z,20.90
2023-01-17T12:33:16.966Z,20.40
2023-01-17T12:34:16.945Z,20.10
2023-01-17T12:35:16.944Z,21.20
2023-01-17T12:36:16.921Z,23.90
2023-01-17T12:37:16.911Z,24.80
2023-01-17T12:38:31.213Z,21.50
2023-01-17T12:39:16.905Z,22.20
2023-01-17T12:40:16.898Z,22.60
2023-01-17T12:41:16.880Z,20.80
2023-01-17T12:42:16.872Z,21.90
2023-01-17T12:43:16.869Z,23.10
2023-01-17T12:44:16.842Z,21.40
2023-01-17T12:45:16.833Z,19.10
2023-01-17T12:46:16.847Z,19.30
2023-01-17T12:47:16.815Z,22.40
2023-01-17T12:48:16.817Z,20.60
2023-01-17T12:49:16.792Z,18.20
2023-01-17T12:50:16.782Z,19.50
2023-01-17T12:51:16.777Z,18.20